sensor_id;sensor_type;location;lat;lon;timestamp;temperature;humidity
68354;DHT22;55274;43.060;25.618;2022-10-16T00:02:06;7.80;92.90
68354;DHT22;55274;43.060;25.618;2022-10-16T00:04:32;7.80;92.60
68354;DHT22;55274;43.060;25.618;2022-10-16T00:06:57;7.70;92.80
68354;DHT22;55274;43.060;25.618;2022-10-16T00:09:23;7.70;93.00
68354;DHT22;55274;43.060;25.618;2022-10-16T00:11:49;7.70;92.90
68354;DHT22;55274;43.060;25.618;2022-10-16T00:14:15;7.60;92.80
68354;DHT22;55274;43.060;25.618;2022-10-16T00:16:41;7.60;92.80
68354;DHT22;55274;43.060;25.618;2022-10-16T00:19:07;7.60;92.80
68354;DHT22;55274;43.060;25.618;2022-10-16T00:21:34;7.60;92.70
68354;DHT22;55274;43.060;25.618;2022-10-16T00:24:06;7.60;92.70
68354;DHT22;55274;43.060;25.618;2022-10-16T00:26:33;7.60;92.80
68354;DHT22;55274;43.060;25.618;2022-10-16T00:28:59;7.50;92.80
68354;DHT22;55274;43.060;25.618;2022-10-16T00:31:26;7.50;92.80
68354;DHT22;55274;43.060;25.618;2022-10-16T00:33:52;7.50;92.90
68354;DHT22;55274;43.060;25.618;2022-10-16T00:36:21;7.50;92.80
68354;DHT22;55274;43.060;25.618;2022-10-16T00:38:51;7.50;92.50
68354;DHT22;55274;43.060;25.618;2022-10-16T00:41:19;7.40;92.40
68354;DHT22;55274;43.060;25.618;2022-10-16T00:43:50;7.40;92.40
68354;DHT22;55274;43.060;25.618;2022-10-16T00:46:45;7.40;92.50
68354;DHT22;55274;43.060;25.618;2022-10-16T00:49:17;7.40;92.40
68354;DHT22;55274;43.060;25.618;2022-10-16T00:51:49;7.40;92.70
68354;DHT22;55274;43.060;25.618;2022-10-16T00:54:22;7.30;92.80
68354;DHT22;55274;43.060;25.618;2022-10-16T00:56:49;7.10;92.70
68354;DHT22;55274;43.060;25.618;2022-10-16T00:59:29;7.00;93.00
68354;DHT22;55274;43.060;25.618;2022-10-16T01:01:56;7.00;92.90
68354;DHT22;55274;43.060;25.618;2022-10-16T01:04:23;7.00;93.20
68354;DHT22;55274;43.060;25.618;2022-10-16T01:09:47;7.00;93.70
68354;DHT22;55274;43.060;25.618;2022-10-16T01:12:47;7.00;93.40
68354;DHT22;55274;43.060;25.618;2022-10-16T01:15:29;7.00;93.30
68354;DHT22;55274;43.060;25.618;2022-10-16T01:20:47;6.90;93.10
68354;DHT22;55274;43.060;25.618;2022-10-16T01:23:21;6.90;93.40
68354;DHT22;55274;43.060;25.618;2022-10-16T01:28:27;6.90;93.10
68354;DHT22;55274;43.060;25.618;2022-10-16T01:30:58;6.90;93.10
68354;DHT22;55274;43.060;25.618;2022-10-16T01:33:30;6.80;93.20
68354;DHT22;55274;43.060;25.618;2022-10-16T01:36:05;6.80;93.00
68354;DHT22;55274;43.060;25.618;2022-10-16T01:38:36;6.70;93.70
68354;DHT22;55274;43.060;25.618;2022-10-16T01:41:22;6.70;93.40
68354;DHT22;55274;43.060;25.618;2022-10-16T01:46:30;6.60;93.70
68354;DHT22;55274;43.060;25.618;2022-10-16T01:48:58;6.60;93.60
68354;DHT22;55274;43.060;25.618;2022-10-16T01:51:26;6.60;93.50
68354;DHT22;55274;43.060;25.618;2022-10-16T01:53:56;6.60;93.40
68354;DHT22;55274;43.060;25.618;2022-10-16T01:56:24;6.60;93.20
68354;DHT22;55274;43.060;25.618;2022-10-16T01:59:01;6.50;93.80
68354;DHT22;55274;43.060;25.618;2022-10-16T02:01:28;6.50;93.70
68354;DHT22;55274;43.060;25.618;2022-10-16T02:03:58;6.50;93.70
68354;DHT22;55274;43.060;25.618;2022-10-16T02:06:24;6.50;93.90
68354;DHT22;55274;43.060;25.618;2022-10-16T02:08:51;6.50;93.40
68354;DHT22;55274;43.060;25.618;2022-10-16T02:11:17;6.40;93.60
68354;DHT22;55274;43.060;25.618;2022-10-16T02:13:46;6.40;93.80
68354;DHT22;55274;43.060;25.618;2022-10-16T02:16:14;6.30;94.20
68354;DHT22;55274;43.060;25.618;2022-10-16T02:18:40;6.30;94.00
68354;DHT22;55274;43.060;25.618;2022-10-16T02:21:23;6.20;93.90
68354;DHT22;55274;43.060;25.618;2022-10-16T02:29:10;6.20;94.20
68354;DHT22;55274;43.060;25.618;2022-10-16T02:31:41;6.20;93.80
68354;DHT22;55274;43.060;25.618;2022-10-16T02:34:10;6.20;93.70
68354;DHT22;55274;43.060;25.618;2022-10-16T02:36:38;6.20;93.40
68354;DHT22;55274;43.060;25.618;2022-10-16T02:39:05;6.10;93.30
68354;DHT22;55274;43.060;25.618;2022-10-16T02:41:32;6.10;93.80
68354;DHT22;55274;43.060;25.618;2022-10-16T02:43:58;6.00;94.10
68354;DHT22;55274;43.060;25.618;2022-10-16T02:46:24;5.90;94.50
68354;DHT22;55274;43.060;25.618;2022-10-16T02:48:50;5.90;95.10
68354;DHT22;55274;43.060;25.618;2022-10-16T02:51:15;5.90;94.80
68354;DHT22;55274;43.060;25.618;2022-10-16T02:53:41;5.90;94.70
68354;DHT22;55274;43.060;25.618;2022-10-16T02:56:07;5.90;94.50
68354;DHT22;55274;43.060;25.618;2022-10-16T02:58:33;5.90;94.40
68354;DHT22;55274;43.060;25.618;2022-10-16T03:00:58;5.90;94.30
68354;DHT22;55274;43.060;25.618;2022-10-16T03:03:24;5.90;94.50
68354;DHT22;55274;43.060;25.618;2022-10-16T03:05:50;5.90;94.70
68354;DHT22;55274;43.060;25.618;2022-10-16T03:08:15;5.80;94.20
68354;DHT22;55274;43.060;25.618;2022-10-16T03:10:41;5.80;94.30
68354;DHT22;55274;43.060;25.618;2022-10-16T03:13:07;5.80;94.20
68354;DHT22;55274;43.060;25.618;2022-10-16T03:15:33;5.70;94.70
68354;DHT22;55274;43.060;25.618;2022-10-16T03:17:59;5.70;94.90
68354;DHT22;55274;43.060;25.618;2022-10-16T03:20:25;5.80;94.40
68354;DHT22;55274;43.060;25.618;2022-10-16T03:22:51;5.80;94.50
68354;DHT22;55274;43.060;25.618;2022-10-16T03:25:17;5.80;94.20
68354;DHT22;55274;43.060;25.618;2022-10-16T03:27:43;5.80;94.50
68354;DHT22;55274;43.060;25.618;2022-10-16T03:30:09;5.80;94.40
68354;DHT22;55274;43.060;25.618;2022-10-16T03:32:35;5.80;94.60
68354;DHT22;55274;43.060;25.618;2022-10-16T03:35:01;5.80;94.90
68354;DHT22;55274;43.060;25.618;2022-10-16T03:37:26;5.80;95.10
68354;DHT22;55274;43.060;25.618;2022-10-16T03:39:52;5.80;95.20
68354;DHT22;55274;43.060;25.618;2022-10-16T03:42:18;5.80;95.20
68354;DHT22;55274;43.060;25.618;2022-10-16T03:44:44;5.90;95.10
68354;DHT22;55274;43.060;25.618;2022-10-16T03:47:10;5.90;94.90
68354;DHT22;55274;43.060;25.618;2022-10-16T03:49:35;5.90;94.80
68354;DHT22;55274;43.060;25.618;2022-10-16T03:52:01;5.80;94.80
68354;DHT22;55274;43.060;25.618;2022-10-16T03:54:27;5.80;94.90
68354;DHT22;55274;43.060;25.618;2022-10-16T03:56:53;5.90;95.40
68354;DHT22;55274;43.060;25.618;2022-10-16T03:59:18;5.80;95.40
68354;DHT22;55274;43.060;25.618;2022-10-16T04:01:44;5.90;95.70
68354;DHT22;55274;43.060;25.618;2022-10-16T04:04:10;5.90;96.10
68354;DHT22;55274;43.060;25.618;2022-10-16T04:06:36;5.90;96.80
68354;DHT22;55274;43.060;25.618;2022-10-16T04:09:02;6.00;96.70
68354;DHT22;55274;43.060;25.618;2022-10-16T04:11:27;5.90;96.80
68354;DHT22;55274;43.060;25.618;2022-10-16T04:13:53;5.90;96.70
68354;DHT22;55274;43.060;25.618;2022-10-16T04:16:19;5.90;96.80
68354;DHT22;55274;43.060;25.618;2022-10-16T04:18:45;5.90;96.60
68354;DHT22;55274;43.060;25.618;2022-10-16T04:21:11;5.90;96.20
68354;DHT22;55274;43.060;25.618;2022-10-16T04:23:37;5.90;95.70
68354;DHT22;55274;43.060;25.618;2022-10-16T04:26:03;5.90;95.30
68354;DHT22;55274;43.060;25.618;2022-10-16T04:28:28;5.80;95.30
68354;DHT22;55274;43.060;25.618;2022-10-16T04:30:54;5.70;95.50
68354;DHT22;55274;43.060;25.618;2022-10-16T04:33:20;5.70;95.60
68354;DHT22;55274;43.060;25.618;2022-10-16T04:35:46;5.70;95.70
68354;DHT22;55274;43.060;25.618;2022-10-16T04:38:11;5.70;96.00
68354;DHT22;55274;43.060;25.618;2022-10-16T04:40:37;5.70;96.50
68354;DHT22;55274;43.060;25.618;2022-10-16T04:43:04;5.60;96.90
68354;DHT22;55274;43.060;25.618;2022-10-16T04:45:30;5.70;97.20
68354;DHT22;55274;43.060;25.618;2022-10-16T04:47:59;5.70;97.00
68354;DHT22;55274;43.060;25.618;2022-10-16T04:50:25;5.70;96.80
68354;DHT22;55274;43.060;25.618;2022-10-16T04:52:51;5.80;96.60
68354;DHT22;55274;43.060;25.618;2022-10-16T04:55:17;5.70;96.60
68354;DHT22;55274;43.060;25.618;2022-10-16T04:57:42;5.80;96.80
68354;DHT22;55274;43.060;25.618;2022-10-16T05:00:09;5.80;97.00
68354;DHT22;55274;43.060;25.618;2022-10-16T05:02:35;5.80;97.20
68354;DHT22;55274;43.060;25.618;2022-10-16T05:05:00;5.80;96.80
68354;DHT22;55274;43.060;25.618;2022-10-16T05:07:26;5.90;97.20
68354;DHT22;55274;43.060;25.618;2022-10-16T05:09:52;5.90;96.90
68354;DHT22;55274;43.060;25.618;2022-10-16T05:12:18;6.00;96.80
68354;DHT22;55274;43.060;25.618;2022-10-16T05:14:44;6.00;96.80
68354;DHT22;55274;43.060;25.618;2022-10-16T05:17:10;6.10;96.60
68354;DHT22;55274;43.060;25.618;2022-10-16T05:19:36;6.10;96.70
68354;DHT22;55274;43.060;25.618;2022-10-16T05:22:02;6.20;96.40
68354;DHT22;55274;43.060;25.618;2022-10-16T05:24:27;6.30;96.50
68354;DHT22;55274;43.060;25.618;2022-10-16T05:26:53;6.40;96.30
68354;DHT22;55274;43.060;25.618;2022-10-16T05:29:19;6.40;96.40
68354;DHT22;55274;43.060;25.618;2022-10-16T05:31:45;6.50;96.40
68354;DHT22;55274;43.060;25.618;2022-10-16T05:34:11;6.60;96.10
68354;DHT22;55274;43.060;25.618;2022-10-16T05:36:37;6.70;96.20
68354;DHT22;55274;43.060;25.618;2022-10-16T05:39:03;6.70;95.60
68354;DHT22;55274;43.060;25.618;2022-10-16T05:41:29;6.90;95.40
68354;DHT22;55274;43.060;25.618;2022-10-16T05:43:54;7.10;94.80
68354;DHT22;55274;43.060;25.618;2022-10-16T05:46:20;7.80;94.00
68354;DHT22;55274;43.060;25.618;2022-10-16T05:48:46;8.20;91.20
68354;DHT22;55274;43.060;25.618;2022-10-16T05:51:13;8.80;91.50
68354;DHT22;55274;43.060;25.618;2022-10-16T05:53:40;9.40;89.00
68354;DHT22;55274;43.060;25.618;2022-10-16T05:56:07;9.90;88.00
68354;DHT22;55274;43.060;25.618;2022-10-16T05:58:36;10.40;85.70
68354;DHT22;55274;43.060;25.618;2022-10-16T06:01:07;10.80;82.50
68354;DHT22;55274;43.060;25.618;2022-10-16T06:03:34;10.90;80.50
68354;DHT22;55274;43.060;25.618;2022-10-16T06:06:11;11.40;80.50
68354;DHT22;55274;43.060;25.618;2022-10-16T06:08:37;11.70;79.50
68354;DHT22;55274;43.060;25.618;2022-10-16T06:11:05;12.00;78.30
68354;DHT22;55274;43.060;25.618;2022-10-16T06:13:32;12.30;78.00
68354;DHT22;55274;43.060;25.618;2022-10-16T06:15:59;12.50;76.90
68354;DHT22;55274;43.060;25.618;2022-10-16T06:18:26;12.70;76.20
68354;DHT22;55274;43.060;25.618;2022-10-16T06:20:52;12.80;76.50
68354;DHT22;55274;43.060;25.618;2022-10-16T06:23:18;12.80;75.70
68354;DHT22;55274;43.060;25.618;2022-10-16T06:25:43;12.60;77.10
68354;DHT22;55274;43.060;25.618;2022-10-16T06:28:09;12.50;75.40
68354;DHT22;55274;43.060;25.618;2022-10-16T06:30:35;11.90;77.30
68354;DHT22;55274;43.060;25.618;2022-10-16T06:33:00;11.80;78.80
68354;DHT22;55274;43.060;25.618;2022-10-16T06:35:26;12.20;77.60
68354;DHT22;55274;43.060;25.618;2022-10-16T06:37:55;12.40;77.20
68354;DHT22;55274;43.060;25.618;2022-10-16T06:40:21;12.70;76.30
68354;DHT22;55274;43.060;25.618;2022-10-16T06:42:46;12.60;76.10
68354;DHT22;55274;43.060;25.618;2022-10-16T06:45:12;12.30;78.10
68354;DHT22;55274;43.060;25.618;2022-10-16T06:47:38;12.00;78.90
68354;DHT22;55274;43.060;25.618;2022-10-16T06:50:04;11.90;79.40
68354;DHT22;55274;43.060;25.618;2022-10-16T06:52:32;11.90;80.60
68354;DHT22;55274;43.060;25.618;2022-10-16T06:54:59;12.00;80.90
68354;DHT22;55274;43.060;25.618;2022-10-16T06:57:25;12.00;80.60
68354;DHT22;55274;43.060;25.618;2022-10-16T06:59:50;12.30;81.10
68354;DHT22;55274;43.060;25.618;2022-10-16T07:02:16;12.70;79.50
68354;DHT22;55274;43.060;25.618;2022-10-16T07:04:42;12.90;78.90
68354;DHT22;55274;43.060;25.618;2022-10-16T07:07:08;12.90;78.60
68354;DHT22;55274;43.060;25.618;2022-10-16T07:09:33;13.00;77.80
68354;DHT22;55274;43.060;25.618;2022-10-16T07:11:59;13.00;77.20
68354;DHT22;55274;43.060;25.618;2022-10-16T07:14:25;13.00;77.80
68354;DHT22;55274;43.060;25.618;2022-10-16T07:16:51;13.60;76.30
68354;DHT22;55274;43.060;25.618;2022-10-16T07:19:16;13.80;76.20
68354;DHT22;55274;43.060;25.618;2022-10-16T07:21:44;14.00;75.60
68354;DHT22;55274;43.060;25.618;2022-10-16T07:24:16;14.30;73.90
68354;DHT22;55274;43.060;25.618;2022-10-16T07:26:43;14.30;74.50
68354;DHT22;55274;43.060;25.618;2022-10-16T07:29:14;14.40;74.40
68354;DHT22;55274;43.060;25.618;2022-10-16T07:31:41;14.70;73.50
68354;DHT22;55274;43.060;25.618;2022-10-16T07:34:08;15.00;72.70
68354;DHT22;55274;43.060;25.618;2022-10-16T07:36:34;15.00;73.00
68354;DHT22;55274;43.060;25.618;2022-10-16T07:39:00;15.10;72.00
68354;DHT22;55274;43.060;25.618;2022-10-16T07:41:26;15.30;72.60
68354;DHT22;55274;43.060;25.618;2022-10-16T07:43:53;15.40;72.60
68354;DHT22;55274;43.060;25.618;2022-10-16T07:46:21;15.70;72.50
68354;DHT22;55274;43.060;25.618;2022-10-16T07:48:47;15.80;71.20
68354;DHT22;55274;43.060;25.618;2022-10-16T07:51:15;16.00;69.90
68354;DHT22;55274;43.060;25.618;2022-10-16T07:53:41;16.30;70.70
68354;DHT22;55274;43.060;25.618;2022-10-16T07:56:08;16.40;69.20
68354;DHT22;55274;43.060;25.618;2022-10-16T07:58:35;16.60;68.60
68354;DHT22;55274;43.060;25.618;2022-10-16T08:01:08;16.80;67.50
68354;DHT22;55274;43.060;25.618;2022-10-16T08:03:34;16.90;67.40
68354;DHT22;55274;43.060;25.618;2022-10-16T08:06:00;17.10;67.70
68354;DHT22;55274;43.060;25.618;2022-10-16T08:08:27;17.40;67.40
68354;DHT22;55274;43.060;25.618;2022-10-16T08:10:52;17.60;67.80
68354;DHT22;55274;43.060;25.618;2022-10-16T08:13:18;17.80;67.50
68354;DHT22;55274;43.060;25.618;2022-10-16T08:15:45;18.00;66.30
68354;DHT22;55274;43.060;25.618;2022-10-16T08:18:12;18.00;64.80
68354;DHT22;55274;43.060;25.618;2022-10-16T08:20:39;18.30;65.50
68354;DHT22;55274;43.060;25.618;2022-10-16T08:23:05;18.50;63.60
68354;DHT22;55274;43.060;25.618;2022-10-16T08:25:31;18.70;64.10
68354;DHT22;55274;43.060;25.618;2022-10-16T08:27:57;19.00;63.20
68354;DHT22;55274;43.060;25.618;2022-10-16T08:30:23;19.20;61.30
68354;DHT22;55274;43.060;25.618;2022-10-16T08:32:49;19.30;62.20
68354;DHT22;55274;43.060;25.618;2022-10-16T08:35:16;19.40;59.90
68354;DHT22;55274;43.060;25.618;2022-10-16T08:37:42;19.60;61.20
68354;DHT22;55274;43.060;25.618;2022-10-16T08:40:26;19.80;59.60
68354;DHT22;55274;43.060;25.618;2022-10-16T08:43:21;19.80;57.50
68354;DHT22;55274;43.060;25.618;2022-10-16T08:48:45;20.20;55.40
68354;DHT22;55274;43.060;25.618;2022-10-16T08:51:31;20.50;55.40
68354;DHT22;55274;43.060;25.618;2022-10-16T08:54:01;20.30;55.00
68354;DHT22;55274;43.060;25.618;2022-10-16T08:56:28;20.40;54.00
68354;DHT22;55274;43.060;25.618;2022-10-16T08:58:54;20.60;55.50
68354;DHT22;55274;43.060;25.618;2022-10-16T09:01:22;20.70;53.80
68354;DHT22;55274;43.060;25.618;2022-10-16T09:15:34;20.60;54.50
68354;DHT22;55274;43.060;25.618;2022-10-16T09:18:09;20.60;54.80
68354;DHT22;55274;43.060;25.618;2022-10-16T09:20:49;20.90;52.50
68354;DHT22;55274;43.060;25.618;2022-10-16T09:23:26;21.00;50.70
68354;DHT22;55274;43.060;25.618;2022-10-16T09:25:53;21.10;49.90
68354;DHT22;55274;43.060;25.618;2022-10-16T09:28:20;21.10;49.50
68354;DHT22;55274;43.060;25.618;2022-10-16T09:30:46;21.50;50.50
68354;DHT22;55274;43.060;25.618;2022-10-16T09:33:15;21.20;49.60
68354;DHT22;55274;43.060;25.618;2022-10-16T09:35:45;20.90;48.90
68354;DHT22;55274;43.060;25.618;2022-10-16T09:38:32;20.90;48.80
68354;DHT22;55274;43.060;25.618;2022-10-16T09:41:19;20.80;48.70
68354;DHT22;55274;43.060;25.618;2022-10-16T09:43:55;21.00;48.40
68354;DHT22;55274;43.060;25.618;2022-10-16T09:46:24;21.40;48.90
68354;DHT22;55274;43.060;25.618;2022-10-16T09:48:53;21.70;48.00
68354;DHT22;55274;43.060;25.618;2022-10-16T09:51:23;21.90;45.90
68354;DHT22;55274;43.060;25.618;2022-10-16T09:56:34;21.40;45.80
68354;DHT22;55274;43.060;25.618;2022-10-16T09:59:10;20.90;46.20
68354;DHT22;55274;43.060;25.618;2022-10-16T10:01:39;20.90;48.10
68354;DHT22;55274;43.060;25.618;2022-10-16T10:04:06;20.20;47.80
68354;DHT22;55274;43.060;25.618;2022-10-16T10:06:41;20.00;48.50
68354;DHT22;55274;43.060;25.618;2022-10-16T10:09:20;19.90;48.80
68354;DHT22;55274;43.060;25.618;2022-10-16T10:11:48;20.00;48.00
68354;DHT22;55274;43.060;25.618;2022-10-16T10:14:38;20.20;48.80
68354;DHT22;55274;43.060;25.618;2022-10-16T10:19:52;20.20;48.70
68354;DHT22;55274;43.060;25.618;2022-10-16T10:27:56;20.20;48.20
68354;DHT22;55274;43.060;25.618;2022-10-16T10:30:27;20.40;48.60
68354;DHT22;55274;43.060;25.618;2022-10-16T10:36:34;20.80;47.40
68354;DHT22;55274;43.060;25.618;2022-10-16T10:46:56;21.00;46.90
68354;DHT22;55274;43.060;25.618;2022-10-16T11:00:16;21.00;46.50
68354;DHT22;55274;43.060;25.618;2022-10-16T11:02:48;21.30;46.00
68354;DHT22;55274;43.060;25.618;2022-10-16T11:07:58;21.40;45.40
68354;DHT22;55274;43.060;25.618;2022-10-16T11:10:28;21.50;45.60
68354;DHT22;55274;43.060;25.618;2022-10-16T11:13:39;21.30;45.40
68354;DHT22;55274;43.060;25.618;2022-10-16T11:16:09;21.00;46.00
68354;DHT22;55274;43.060;25.618;2022-10-16T11:19:41;20.80;46.90
68354;DHT22;55274;43.060;25.618;2022-10-16T11:21:51;20.60;47.20
68354;DHT22;55274;43.060;25.618;2022-10-16T11:27:14;20.80;46.80
68354;DHT22;55274;43.060;25.618;2022-10-16T11:29:49;20.70;47.30
68354;DHT22;55274;43.060;25.618;2022-10-16T11:33:30;20.30;48.00
68354;DHT22;55274;43.060;25.618;2022-10-16T11:38:02;20.10;49.10
68354;DHT22;55274;43.060;25.618;2022-10-16T11:40:32;20.10;48.50
68354;DHT22;55274;43.060;25.618;2022-10-16T11:45:58;20.10;48.80
68354;DHT22;55274;43.060;25.618;2022-10-16T11:48:32;20.30;48.10
68354;DHT22;55274;43.060;25.618;2022-10-16T11:53:53;20.60;48.50
68354;DHT22;55274;43.060;25.618;2022-10-16T11:56:22;20.70;47.50
68354;DHT22;55274;43.060;25.618;2022-10-16T12:09:34;20.70;48.10
68354;DHT22;55274;43.060;25.618;2022-10-16T12:12:02;20.70;47.80
68354;DHT22;55274;43.060;25.618;2022-10-16T12:14:37;20.90;48.00
68354;DHT22;55274;43.060;25.618;2022-10-16T12:17:24;20.90;48.10
68354;DHT22;55274;43.060;25.618;2022-10-16T12:25:38;20.80;48.30
68354;DHT22;55274;43.060;25.618;2022-10-16T12:30:42;20.80;47.70
68354;DHT22;55274;43.060;25.618;2022-10-16T12:33:23;20.90;48.30
68354;DHT22;55274;43.060;25.618;2022-10-16T12:35:50;20.90;47.60
68354;DHT22;55274;43.060;25.618;2022-10-16T12:38:26;20.70;47.70
68354;DHT22;55274;43.060;25.618;2022-10-16T12:41:00;20.60;48.00
68354;DHT22;55274;43.060;25.618;2022-10-16T12:46:26;20.60;47.50
68354;DHT22;55274;43.060;25.618;2022-10-16T12:51:39;20.40;47.90
68354;DHT22;55274;43.060;25.618;2022-10-16T12:57:27;20.40;49.00
68354;DHT22;55274;43.060;25.618;2022-10-16T13:00:21;20.40;48.40
68354;DHT22;55274;43.060;25.618;2022-10-16T13:05:42;20.00;49.00
68354;DHT22;55274;43.060;25.618;2022-10-16T13:14:06;19.90;49.20
68354;DHT22;55274;43.060;25.618;2022-10-16T13:27:03;19.70;50.10
68354;DHT22;55274;43.060;25.618;2022-10-16T13:29:33;19.70;49.90
68354;DHT22;55274;43.060;25.618;2022-10-16T13:32:00;19.60;49.80
68354;DHT22;55274;43.060;25.618;2022-10-16T13:34:32;19.60;50.80
68354;DHT22;55274;43.060;25.618;2022-10-16T13:36:58;19.60;51.30
68354;DHT22;55274;43.060;25.618;2022-10-16T13:39:28;19.60;52.20
68354;DHT22;55274;43.060;25.618;2022-10-16T13:42:27;19.50;52.70
68354;DHT22;55274;43.060;25.618;2022-10-16T13:44:55;19.40;51.80
68354;DHT22;55274;43.060;25.618;2022-10-16T13:47:22;19.40;50.30
68354;DHT22;55274;43.060;25.618;2022-10-16T13:50:20;19.40;50.20
68354;DHT22;55274;43.060;25.618;2022-10-16T13:52:45;19.30;49.80
68354;DHT22;55274;43.060;25.618;2022-10-16T13:55:12;19.30;49.50
68354;DHT22;55274;43.060;25.618;2022-10-16T13:57:39;19.30;50.00
68354;DHT22;55274;43.060;25.618;2022-10-16T14:00:25;19.30;51.20
68354;DHT22;55274;43.060;25.618;2022-10-16T14:03:03;19.20;53.30
68354;DHT22;55274;43.060;25.618;2022-10-16T14:05:30;19.10;53.60
68354;DHT22;55274;43.060;25.618;2022-10-16T14:07:56;19.00;52.50
68354;DHT22;55274;43.060;25.618;2022-10-16T14:10:27;19.00;53.50
68354;DHT22;55274;43.060;25.618;2022-10-16T14:13:00;18.90;54.70
68354;DHT22;55274;43.060;25.618;2022-10-16T14:15:27;18.70;54.10
68354;DHT22;55274;43.060;25.618;2022-10-16T14:17:53;18.60;54.40
68354;DHT22;55274;43.060;25.618;2022-10-16T14:20:22;18.50;54.60
68354;DHT22;55274;43.060;25.618;2022-10-16T14:23:02;18.40;54.50
68354;DHT22;55274;43.060;25.618;2022-10-16T14:25:31;18.30;55.00
68354;DHT22;55274;43.060;25.618;2022-10-16T14:28:18;18.20;55.40
68354;DHT22;55274;43.060;25.618;2022-10-16T14:30:55;18.00;54.90
68354;DHT22;55274;43.060;25.618;2022-10-16T14:36:05;18.00;56.10
68354;DHT22;55274;43.060;25.618;2022-10-16T14:38:36;18.00;56.70
68354;DHT22;55274;43.060;25.618;2022-10-16T14:41:03;17.70;57.70
68354;DHT22;55274;43.060;25.618;2022-10-16T14:43:35;17.60;57.00
68354;DHT22;55274;43.060;25.618;2022-10-16T14:46:14;17.60;57.50
68354;DHT22;55274;43.060;25.618;2022-10-16T14:48:46;17.50;57.00
68354;DHT22;55274;43.060;25.618;2022-10-16T14:51:19;17.50;57.30
68354;DHT22;55274;43.060;25.618;2022-10-16T14:53:46;17.40;57.10
68354;DHT22;55274;43.060;25.618;2022-10-16T14:56:19;17.30;57.90
68354;DHT22;55274;43.060;25.618;2022-10-16T14:58:45;17.20;58.90
68354;DHT22;55274;43.060;25.618;2022-10-16T15:01:10;17.10;58.10
68354;DHT22;55274;43.060;25.618;2022-10-16T15:03:37;17.00;58.30
68354;DHT22;55274;43.060;25.618;2022-10-16T15:06:03;16.90;59.90
68354;DHT22;55274;43.060;25.618;2022-10-16T15:08:35;16.80;59.70
68354;DHT22;55274;43.060;25.618;2022-10-16T15:11:00;16.60;60.20
68354;DHT22;55274;43.060;25.618;2022-10-16T15:13:26;16.50;60.20
68354;DHT22;55274;43.060;25.618;2022-10-16T15:15:53;16.50;61.40
68354;DHT22;55274;43.060;25.618;2022-10-16T15:18:19;16.40;61.70
68354;DHT22;55274;43.060;25.618;2022-10-16T15:20:50;16.30;62.00
68354;DHT22;55274;43.060;25.618;2022-10-16T15:23:20;16.20;61.60
68354;DHT22;55274;43.060;25.618;2022-10-16T15:25:49;16.10;62.20
68354;DHT22;55274;43.060;25.618;2022-10-16T15:28:18;16.00;62.00
68354;DHT22;55274;43.060;25.618;2022-10-16T15:30:44;15.90;62.40
68354;DHT22;55274;43.060;25.618;2022-10-16T15:33:24;15.80;63.50
68354;DHT22;55274;43.060;25.618;2022-10-16T15:35:53;15.70;63.30
68354;DHT22;55274;43.060;25.618;2022-10-16T15:38:21;15.60;63.30
68354;DHT22;55274;43.060;25.618;2022-10-16T15:40:48;15.40;66.40
68354;DHT22;55274;43.060;25.618;2022-10-16T15:43:14;15.30;67.90
68354;DHT22;55274;43.060;25.618;2022-10-16T15:45:40;15.20;68.30
68354;DHT22;55274;43.060;25.618;2022-10-16T15:48:06;15.10;68.40
68354;DHT22;55274;43.060;25.618;2022-10-16T15:50:32;15.00;68.20
68354;DHT22;55274;43.060;25.618;2022-10-16T15:52:58;15.00;68.40
68354;DHT22;55274;43.060;25.618;2022-10-16T15:55:23;14.90;69.20
68354;DHT22;55274;43.060;25.618;2022-10-16T15:57:49;14.80;70.00
68354;DHT22;55274;43.060;25.618;2022-10-16T16:00:17;14.60;70.10
68354;DHT22;55274;43.060;25.618;2022-10-16T16:02:48;14.50;70.50
68354;DHT22;55274;43.060;25.618;2022-10-16T16:05:15;14.50;71.00
68354;DHT22;55274;43.060;25.618;2022-10-16T16:07:40;14.40;71.50
68354;DHT22;55274;43.060;25.618;2022-10-16T16:10:08;14.20;71.90
68354;DHT22;55274;43.060;25.618;2022-10-16T16:12:35;14.10;72.10
68354;DHT22;55274;43.060;25.618;2022-10-16T16:15:05;14.00;72.20
68354;DHT22;55274;43.060;25.618;2022-10-16T16:17:33;14.00;72.10
68354;DHT22;55274;43.060;25.618;2022-10-16T16:19:59;13.90;71.80
68354;DHT22;55274;43.060;25.618;2022-10-16T16:22:25;13.80;72.60
68354;DHT22;55274;43.060;25.618;2022-10-16T16:24:50;13.60;72.90
68354;DHT22;55274;43.060;25.618;2022-10-16T16:27:16;13.60;72.60
68354;DHT22;55274;43.060;25.618;2022-10-16T16:29:42;13.50;73.10
68354;DHT22;55274;43.060;25.618;2022-10-16T16:32:08;13.40;73.50
68354;DHT22;55274;43.060;25.618;2022-10-16T16:34:34;13.30;73.90
68354;DHT22;55274;43.060;25.618;2022-10-16T16:37:00;13.20;74.30
68354;DHT22;55274;43.060;25.618;2022-10-16T16:39:25;13.10;74.50
68354;DHT22;55274;43.060;25.618;2022-10-16T16:41:51;13.00;74.40
68354;DHT22;55274;43.060;25.618;2022-10-16T16:44:17;13.00;75.40
68354;DHT22;55274;43.060;25.618;2022-10-16T16:46:44;12.90;75.80
68354;DHT22;55274;43.060;25.618;2022-10-16T16:49:12;12.80;75.90
68354;DHT22;55274;43.060;25.618;2022-10-16T16:51:38;12.70;76.30
68354;DHT22;55274;43.060;25.618;2022-10-16T16:54:04;12.60;76.20
68354;DHT22;55274;43.060;25.618;2022-10-16T16:56:31;12.50;76.30
68354;DHT22;55274;43.060;25.618;2022-10-16T16:58:57;12.40;76.10
68354;DHT22;55274;43.060;25.618;2022-10-16T17:01:25;12.40;76.40
68354;DHT22;55274;43.060;25.618;2022-10-16T17:03:53;12.30;76.90
68354;DHT22;55274;43.060;25.618;2022-10-16T17:06:24;12.20;76.70
68354;DHT22;55274;43.060;25.618;2022-10-16T17:08:50;12.10;76.90
68354;DHT22;55274;43.060;25.618;2022-10-16T17:11:19;12.10;77.40
68354;DHT22;55274;43.060;25.618;2022-10-16T17:13:46;12.00;77.70
68354;DHT22;55274;43.060;25.618;2022-10-16T17:16:12;11.90;77.90
68354;DHT22;55274;43.060;25.618;2022-10-16T17:18:38;11.90;78.10
68354;DHT22;55274;43.060;25.618;2022-10-16T17:21:06;11.80;78.00
68354;DHT22;55274;43.060;25.618;2022-10-16T17:23:34;11.70;78.20
68354;DHT22;55274;43.060;25.618;2022-10-16T17:26:11;11.60;78.60
68354;DHT22;55274;43.060;25.618;2022-10-16T17:28:38;11.60;78.80
68354;DHT22;55274;43.060;25.618;2022-10-16T17:31:15;11.50;79.10
68354;DHT22;55274;43.060;25.618;2022-10-16T17:33:42;11.40;79.10
68354;DHT22;55274;43.060;25.618;2022-10-16T17:36:08;11.40;79.30
68354;DHT22;55274;43.060;25.618;2022-10-16T17:38:35;11.30;79.50
68354;DHT22;55274;43.060;25.618;2022-10-16T17:41:21;11.30;79.70
68354;DHT22;55274;43.060;25.618;2022-10-16T17:43:48;11.20;79.60